createdAt,value
2018-05-13T00:01:15.141Z,9.63
2018-05-13T00:03:43.381Z,8.40
2018-05-13T00:06:11.644Z,9.10
2018-05-13T00:08:39.895Z,9.53
2018-05-13T00:11:08.125Z,8.83
2018-05-13T00:13:36.463Z,9.20
2018-05-13T00:16:04.704Z,9.80
2018-05-13T00:18:32.913Z,8.63
2018-05-13T00:21:01.181Z,9.70
2018-05-13T00:23:30.193Z,11.17
2018-05-13T00:25:58.448Z,10.27
2018-05-13T00:28:27.534Z,9.40
2018-05-13T00:30:56.533Z,11.23
2018-05-13T00:33:25.555Z,10.00
2018-05-13T00:35:53.804Z,9.93
2018-05-13T00:38:22.031Z,9.33
2018-05-13T00:40:50.308Z,9.73
2018-05-13T00:43:18.547Z,9.73
2018-05-13T00:45:47.555Z,9.27
2018-05-13T00:48:16.574Z,9.20
2018-05-13T00:50:44.870Z,9.47
2018-05-13T00:53:13.044Z,9.63
2018-05-13T00:55:41.325Z,11.63
2018-05-13T00:58:09.557Z,9.60
2018-05-13T01:00:37.792Z,10.83
2018-05-13T01:03:06.079Z,10.07
2018-05-13T01:05:34.320Z,11.43
2018-05-13T01:08:03.343Z,11.83
2018-05-13T01:10:31.600Z,10.30
2018-05-13T01:12:59.854Z,10.63
2018-05-13T01:15:28.108Z,10.13
2018-05-13T01:17:56.354Z,9.60
2018-05-13T01:20:24.598Z,9.73
2018-05-13T01:22:52.831Z,10.10
2018-05-13T01:25:21.112Z,9.63
2018-05-13T01:27:49.346Z,9.67
2018-05-13T01:30:18.340Z,9.63
2018-05-13T01:32:47.376Z,9.30
2018-05-13T01:35:15.609Z,9.03
2018-05-13T01:37:43.867Z,10.00
2018-05-13T01:40:12.112Z,9.77
2018-05-13T01:42:40.341Z,9.60
2018-05-13T01:45:08.593Z,8.97
2018-05-13T01:47:36.825Z,10.33
2018-05-13T01:50:05.881Z,10.63
2018-05-13T01:52:34.153Z,9.23
2018-05-13T01:55:02.396Z,8.80
2018-05-13T01:57:31.376Z,9.10
2018-05-13T02:00:00.400Z,9.10
2018-05-13T02:02:28.665Z,8.63
2018-05-13T02:04:57.663Z,8.93
2018-05-13T02:07:26.778Z,9.57
2018-05-13T02:09:55.069Z,9.20
2018-05-13T02:12:23.312Z,9.63
2018-05-13T02:14:52.329Z,9.50
2018-05-13T02:17:20.577Z,10.00
2018-05-13T02:19:48.820Z,8.33
2018-05-13T02:22:17.100Z,9.03
2018-05-13T02:24:45.327Z,11.10
2018-05-13T02:27:14.322Z,9.30
2018-05-13T02:29:43.338Z,8.60
2018-05-13T02:32:11.572Z,9.73
2018-05-13T02:34:39.798Z,8.47
2018-05-13T02:37:08.814Z,8.87
2018-05-13T02:39:37.053Z,9.70
2018-05-13T02:42:05.298Z,8.93
2018-05-13T02:44:33.552Z,9.17
2018-05-13T02:47:01.788Z,8.47
2018-05-13T02:49:30.022Z,7.60
2018-05-13T02:51:58.281Z,8.80
2018-05-13T02:54:26.529Z,11.37
2018-05-13T02:56:54.760Z,13.33
2018-05-13T02:59:23.017Z,14.30
2018-05-13T03:01:51.271Z,15.93
2018-05-13T03:04:19.507Z,15.70
2018-05-13T03:06:47.774Z,13.53
2018-05-13T03:09:16.017Z,13.73
2018-05-13T03:11:44.254Z,13.57
2018-05-13T03:14:12.512Z,14.33
2018-05-13T03:16:40.747Z,13.37
2018-05-13T03:19:08.998Z,16.57
2018-05-13T03:21:37.366Z,17.60
2018-05-13T03:24:05.596Z,16.70
2018-05-13T03:26:33.836Z,16.27
2018-05-13T03:29:02.116Z,17.37
2018-05-13T03:31:30.352Z,17.60
2018-05-13T03:33:58.589Z,18.00
2018-05-13T03:36:26.849Z,18.60
2018-05-13T03:38:55.080Z,15.73
2018-05-13T03:41:24.106Z,16.37
2018-05-13T03:43:52.354Z,17.13
2018-05-13T03:46:20.622Z,17.23
2018-05-13T03:48:48.856Z,17.00
2018-05-13T03:51:17.127Z,16.43
2018-05-13T03:53:45.399Z,18.30
2018-05-13T03:56:13.666Z,18.00
2018-05-13T03:58:42.705Z,23.37
2018-05-13T04:01:10.965Z,17.43
2018-05-13T04:03:39.966Z,15.67
2018-05-13T04:06:08.205Z,17.27
2018-05-13T04:08:59.871Z,17.93
2018-05-13T04:11:39.710Z,16.90
2018-05-13T04:14:20.733Z,16.47
2018-05-13T04:16:49.140Z,17.27
2018-05-13T04:19:17.504Z,16.73
2018-05-13T04:21:45.774Z,17.70
2018-05-13T04:24:14.009Z,17.23
2018-05-13T04:26:42.297Z,18.17
2018-05-13T04:29:16.281Z,17.57
2018-05-13T04:31:44.728Z,17.93
2018-05-13T04:34:12.979Z,18.60
2018-05-13T04:36:41.215Z,16.20
2018-05-13T04:39:10.268Z,16.10
2018-05-13T04:41:38.502Z,17.10
2018-05-13T04:44:06.761Z,17.53
2018-05-13T04:46:35.795Z,17.50
2018-05-13T04:49:04.834Z,19.10
2018-05-13T04:51:33.088Z,15.20
2018-05-13T04:54:01.359Z,16.90
2018-05-13T04:56:29.828Z,15.27
2018-05-13T04:58:58.087Z,13.87
2018-05-13T05:01:27.128Z,13.10
2018-05-13T05:03:55.384Z,14.27
2018-05-13T05:06:23.637Z,13.60
2018-05-13T05:08:52.003Z,15.63
2018-05-13T05:11:20.180Z,14.73
2018-05-13T05:13:48.432Z,14.83
2018-05-13T05:16:16.693Z,14.03
2018-05-13T05:18:44.973Z,15.93
2018-05-13T05:21:13.214Z,16.93
2018-05-13T05:23:41.469Z,18.17
2018-05-13T05:26:09.728Z,17.00
2018-05-13T05:28:37.998Z,18.37
2018-05-13T05:31:06.252Z,18.33
2018-05-13T05:33:35.292Z,18.50
2018-05-13T05:36:03.551Z,18.27
2018-05-13T05:38:31.802Z,19.43
2018-05-13T05:41:00.102Z,19.53
2018-05-13T05:43:28.372Z,19.70
2018-05-13T05:45:57.392Z,18.70
2018-05-13T05:48:25.704Z,20.30
2018-05-13T05:50:53.956Z,18.17
2018-05-13T05:53:22.199Z,19.63
2018-05-13T05:55:50.451Z,20.60
2018-05-13T05:58:18.701Z,19.90
2018-05-13T06:00:47.073Z,20.97
2018-05-13T06:03:15.329Z,19.93
2018-05-13T06:05:43.603Z,20.63
2018-05-13T06:08:11.841Z,18.70
2018-05-13T06:10:40.105Z,20.30
2018-05-13T06:13:08.361Z,20.17
2018-05-13T06:15:38.365Z,20.40
2018-05-13T06:18:06.644Z,20.13
2018-05-13T06:20:35.697Z,19.90
2018-05-13T06:23:03.953Z,20.50
2018-05-13T06:25:32.529Z,20.37
2018-05-13T06:28:00.821Z,19.03
2018-05-13T06:30:29.127Z,20.10
2018-05-13T06:32:57.375Z,18.83
2018-05-13T06:35:25.679Z,19.67
2018-05-13T06:37:53.981Z,21.60
2018-05-13T06:40:22.216Z,20.13
2018-05-13T06:42:51.237Z,20.70
2018-05-13T06:45:19.565Z,20.13
2018-05-13T06:47:47.806Z,21.50
2018-05-13T06:50:16.077Z,19.43
2018-05-13T06:52:44.361Z,16.47
2018-05-13T06:55:12.628Z,17.90
2018-05-13T06:57:40.916Z,19.07
2018-05-13T07:00:09.180Z,19.07
2018-05-13T07:02:37.588Z,19.90
2018-05-13T07:05:05.815Z,21.10
2018-05-13T07:07:34.068Z,18.83
2018-05-13T07:10:02.394Z,17.73
2018-05-13T07:12:31.403Z,18.93
2018-05-13T07:15:00.427Z,19.13
2018-05-13T07:17:28.767Z,17.90
2018-05-13T07:19:57.782Z,18.03
2018-05-13T07:22:26.036Z,17.80
2018-05-13T07:24:55.064Z,15.67
2018-05-13T07:27:23.349Z,16.30
2018-05-13T07:29:51.678Z,16.70
2018-05-13T07:32:19.908Z,16.07
2018-05-13T07:34:48.147Z,15.97
2018-05-13T07:37:17.326Z,16.80
2018-05-13T07:39:45.580Z,16.77
2018-05-13T07:42:13.844Z,16.33
2018-05-13T07:44:42.103Z,16.47
2018-05-13T07:47:11.120Z,16.83
2018-05-13T07:49:39.417Z,15.90
2018-05-13T07:52:07.674Z,15.83
2018-05-13T07:54:36.694Z,17.33
2018-05-13T07:57:05.198Z,17.63
2018-05-13T07:59:33.467Z,16.90
2018-05-13T08:02:01.709Z,22.30
2018-05-13T08:04:31.034Z,19.63
2018-05-13T08:06:59.284Z,18.50
2018-05-13T08:09:27.511Z,16.80
2018-05-13T08:11:56.119Z,18.53
2018-05-13T08:14:24.387Z,18.13
2018-05-13T08:16:53.363Z,20.23
2018-05-13T08:19:22.488Z,17.03
2018-05-13T08:21:50.899Z,18.93
2018-05-13T08:24:19.164Z,18.03
2018-05-13T08:26:47.395Z,22.00
2018-05-13T08:29:15.655Z,19.73
2018-05-13T08:31:44.729Z,19.37
2018-05-13T08:34:12.981Z,18.33
2018-05-13T08:36:41.252Z,19.50
2018-05-13T08:39:09.511Z,19.87
2018-05-13T08:41:38.528Z,19.10
2018-05-13T08:44:06.809Z,19.70
2018-05-13T08:46:35.803Z,20.47
2018-05-13T08:49:04.064Z,22.03
2018-05-13T08:51:34.084Z,21.43
2018-05-13T08:54:03.109Z,23.23
2018-05-13T08:56:31.392Z,25.60
2018-05-13T08:58:59.654Z,25.43
2018-05-13T09:01:28.851Z,26.07
2018-05-13T09:03:57.129Z,24.23
2018-05-13T09:06:25.409Z,25.13
2018-05-13T09:08:54.423Z,26.40
2018-05-13T09:11:22.724Z,28.67
2018-05-13T09:13:51.064Z,29.10
2018-05-13T09:16:19.276Z,31.77
2018-05-13T09:18:47.542Z,30.20
2018-05-13T09:21:15.823Z,31.57
2018-05-13T09:23:44.124Z,32.00
2018-05-13T09:26:12.462Z,34.83
2018-05-13T09:28:41.639Z,33.43
2018-05-13T09:31:10.126Z,31.80
2018-05-13T09:33:38.583Z,32.60
2018-05-13T09:36:06.822Z,35.97
2018-05-13T09:38:35.263Z,33.63
2018-05-13T09:41:04.761Z,34.80
2018-05-13T09:43:33.056Z,37.67
2018-05-13T09:46:01.431Z,38.43
2018-05-13T09:48:29.683Z,43.20
2018-05-13T09:50:57.945Z,36.40
2018-05-13T09:53:26.201Z,38.83
2018-05-13T09:55:54.469Z,38.40
2018-05-13T09:58:22.745Z,39.70
2018-05-13T10:00:50.999Z,38.47
2018-05-13T10:03:19.273Z,42.57
2018-05-13T10:05:47.541Z,38.33
2018-05-13T10:08:15.817Z,40.00
2018-05-13T10:10:44.085Z,41.73
2018-05-13T10:13:13.092Z,39.43
2018-05-13T10:15:41.375Z,42.80
2018-05-13T10:18:10.404Z,40.77
2018-05-13T10:20:38.747Z,39.20
2018-05-13T10:23:07.921Z,42.20
2018-05-13T10:25:36.948Z,40.80
2018-05-13T10:28:05.236Z,38.40
2018-05-13T10:30:34.241Z,41.77
2018-05-13T10:33:02.507Z,43.47
2018-05-13T10:35:30.768Z,44.37
2018-05-13T10:37:59.811Z,43.20
2018-05-13T10:40:28.058Z,43.40
2018-05-13T10:42:57.089Z,46.77
2018-05-13T10:45:25.341Z,48.17
2018-05-13T10:47:54.636Z,52.77
2018-05-13T10:50:22.919Z,56.63
2018-05-13T10:52:51.928Z,56.23
2018-05-13T10:55:20.204Z,57.80
2018-05-13T10:57:50.549Z,56.23
2018-05-13T11:00:18.699Z,62.10
2018-05-13T11:02:47.707Z,59.13
2018-05-13T11:05:16.251Z,61.70
2018-05-13T11:07:44.505Z,62.50
2018-05-13T11:10:12.779Z,64.27
2018-05-13T11:12:42.067Z,67.23
2018-05-13T11:15:10.314Z,70.93
2018-05-13T11:17:39.341Z,73.67
2018-05-13T11:20:08.364Z,74.53
2018-05-13T11:22:36.612Z,74.63
2018-05-13T11:25:05.169Z,77.57
2018-05-13T11:27:33.403Z,83.93
2018-05-13T11:30:01.741Z,88.47
2018-05-13T11:32:30.009Z,89.23
2018-05-13T11:34:58.268Z,89.97
2018-05-13T11:37:26.534Z,95.60
2018-05-13T11:39:55.328Z,87.63
2018-05-13T11:42:23.582Z,88.30
2018-05-13T11:44:51.844Z,87.20
2018-05-13T11:47:20.136Z,87.10
2018-05-13T11:49:48.393Z,85.00
2018-05-13T11:52:17.441Z,80.73
2018-05-13T11:54:45.707Z,84.30
2018-05-13T11:57:13.963Z,78.83
2018-05-13T11:59:43.926Z,70.50
2018-05-13T12:02:12.214Z,76.97
2018-05-13T12:04:40.456Z,69.10
2018-05-13T12:07:08.718Z,73.93
2018-05-13T12:09:37.756Z,66.07
2018-05-13T12:12:06.009Z,65.57
2018-05-13T12:14:34.285Z,63.17
2018-05-13T12:17:03.309Z,68.23
2018-05-13T12:19:31.604Z,73.73
2018-05-13T12:21:59.857Z,75.03
2018-05-13T12:24:28.910Z,69.83
2018-05-13T12:26:57.162Z,69.40
2018-05-13T12:29:25.433Z,73.00
2018-05-13T12:31:53.675Z,78.10
2018-05-13T12:34:22.739Z,72.83
2018-05-13T12:36:51.003Z,69.33
2018-05-13T12:39:19.313Z,67.17
2018-05-13T12:41:47.656Z,72.97
2018-05-13T12:44:15.971Z,53.97
2018-05-13T12:46:44.209Z,61.40
2018-05-13T12:49:12.470Z,57.97
2018-05-13T12:51:41.477Z,59.37
2018-05-13T12:54:09.757Z,59.00
2018-05-13T12:56:38.767Z,59.53
2018-05-13T12:59:07.025Z,57.73
2018-05-13T13:01:36.055Z,56.07
2018-05-13T13:04:04.328Z,67.57
2018-05-13T13:06:32.567Z,55.17
2018-05-13T13:09:00.820Z,53.13
2018-05-13T13:11:29.065Z,58.07
2018-05-13T13:13:57.328Z,56.27
2018-05-13T13:16:25.584Z,57.93
2018-05-13T13:18:53.848Z,61.10
2018-05-13T13:21:22.142Z,58.57
2018-05-13T13:23:50.397Z,59.33
2018-05-13T13:26:18.687Z,53.27
2018-05-13T13:28:46.912Z,53.23
2018-05-13T13:31:15.193Z,52.20
2018-05-13T13:33:44.216Z,50.33
2018-05-13T13:36:12.452Z,50.03
2018-05-13T13:38:41.554Z,58.40
2018-05-13T13:41:10.557Z,55.80
2018-05-13T13:43:39.634Z,55.00
2018-05-13T13:46:07.877Z,52.37
2018-05-13T13:48:36.125Z,52.60
2018-05-13T13:51:05.143Z,53.40
2018-05-13T13:53:33.493Z,52.37
2018-05-13T13:56:01.694Z,55.67
2018-05-13T13:58:29.950Z,56.77
2018-05-13T14:00:58.989Z,56.40
2018-05-13T14:03:27.235Z,58.63
2018-05-13T14:05:56.241Z,56.97
2018-05-13T14:08:24.506Z,55.20
2018-05-13T14:10:53.536Z,56.07
2018-05-13T14:13:21.821Z,58.80
2018-05-13T14:15:50.050Z,66.07
2018-05-13T14:18:18.331Z,66.40
2018-05-13T14:20:46.572Z,60.77
2018-05-13T14:23:14.835Z,68.23
2018-05-13T14:25:43.119Z,60.83
2018-05-13T14:28:11.397Z,59.70
2018-05-13T14:30:39.694Z,70.50
2018-05-13T14:33:07.950Z,56.10
2018-05-13T14:35:36.211Z,55.00
2018-05-13T14:38:05.316Z,54.03
2018-05-13T14:40:33.501Z,54.10
2018-05-13T14:43:01.741Z,48.30
2018-05-13T14:45:30.074Z,59.17
2018-05-13T14:47:58.302Z,54.47
2018-05-13T14:50:26.562Z,51.33
2018-05-13T14:52:54.832Z,55.20
2018-05-13T14:55:23.077Z,48.80
2018-05-13T14:57:52.100Z,51.07
2018-05-13T15:00:20.391Z,56.57
2018-05-13T15:02:48.636Z,51.13
2018-05-13T15:05:17.649Z,56.17
2018-05-13T15:07:45.912Z,54.37
2018-05-13T15:10:14.181Z,57.23
2018-05-13T15:12:43.212Z,53.07
2018-05-13T15:15:11.464Z,58.27
2018-05-13T15:17:40.475Z,58.30
2018-05-13T15:20:08.781Z,58.83
2018-05-13T15:22:37.118Z,53.23
2018-05-13T15:25:05.296Z,51.23
2018-05-13T15:27:34.330Z,56.20
2018-05-13T15:30:02.615Z,55.10
2018-05-13T15:32:30.878Z,50.60
2018-05-13T15:34:59.125Z,53.37
2018-05-13T15:37:27.403Z,51.00
2018-05-13T15:39:55.667Z,56.00
2018-05-13T15:42:24.007Z,52.37
2018-05-13T15:44:52.184Z,52.97
2018-05-13T15:47:20.477Z,50.67
2018-05-13T15:49:48.702Z,51.10
2018-05-13T15:52:16.996Z,57.03
2018-05-13T15:54:45.257Z,51.20
2018-05-13T15:57:13.506Z,48.23
2018-05-13T15:59:41.756Z,46.97
2018-05-13T16:02:10.754Z,46.73
2018-05-13T16:04:39.054Z,48.03
2018-05-13T16:07:08.069Z,47.27
2018-05-13T16:09:36.341Z,45.17
2018-05-13T16:12:04.679Z,36.97
2018-05-13T16:14:32.871Z,39.57
2018-05-13T16:17:01.917Z,41.67
2018-05-13T16:19:30.164Z,40.30
2018-05-13T16:21:58.413Z,50.43
2018-05-13T16:24:27.420Z,41.87
2018-05-13T16:26:56.451Z,41.00
2018-05-13T16:29:24.745Z,43.83
2018-05-13T16:31:53.012Z,44.10
2018-05-13T16:34:21.279Z,40.47
2018-05-13T16:36:49.535Z,41.67
2018-05-13T16:39:18.581Z,38.33
2018-05-13T16:41:46.854Z,40.60
2018-05-13T16:44:15.117Z,43.40
2018-05-13T16:46:43.400Z,40.73
2018-05-13T16:49:11.645Z,46.43
2018-05-13T16:51:40.663Z,42.63
2018-05-13T16:54:08.952Z,41.50
2018-05-13T16:56:37.218Z,40.10
2018-05-13T16:59:06.243Z,43.00
2018-05-13T17:01:34.532Z,41.43
2018-05-13T17:04:03.550Z,41.73
2018-05-13T17:06:31.775Z,41.23
2018-05-13T17:09:00.845Z,44.43
2018-05-13T17:11:29.042Z,44.87
2018-05-13T17:13:57.391Z,42.73
2018-05-13T17:16:25.603Z,43.17
2018-05-13T17:18:54.680Z,47.73
2018-05-13T17:21:22.972Z,49.77
2018-05-13T17:23:51.224Z,43.20
2018-05-13T17:26:19.511Z,45.73
2018-05-13T17:28:47.818Z,46.40
2018-05-13T17:31:16.072Z,46.07
2018-05-13T17:33:44.327Z,45.57
2018-05-13T17:36:12.623Z,43.27
2018-05-13T17:38:40.866Z,43.77
2018-05-13T17:41:09.195Z,44.33
2018-05-13T17:43:37.433Z,42.83
2018-05-13T17:46:05.687Z,47.37
2018-05-13T17:48:33.961Z,46.80
2018-05-13T17:51:02.233Z,45.27
2018-05-13T17:53:30.592Z,48.40
2018-05-13T17:55:58.795Z,43.70
2018-05-13T17:58:27.068Z,51.87
2018-05-13T18:00:55.370Z,42.53
2018-05-13T18:03:23.817Z,44.97
2018-05-13T18:05:51.911Z,43.80
2018-05-13T18:08:20.200Z,46.83
2018-05-13T18:10:48.461Z,45.63
2018-05-13T18:13:16.744Z,47.40
2018-05-13T18:15:44.974Z,42.97
2018-05-13T18:18:13.233Z,46.67
2018-05-13T18:20:41.521Z,46.67
2018-05-13T18:23:09.793Z,46.33
2018-05-13T18:25:39.004Z,46.97
2018-05-13T18:28:07.247Z,44.97
2018-05-13T18:30:35.538Z,47.67
2018-05-13T18:33:03.810Z,42.67
2018-05-13T18:35:32.069Z,51.27
2018-05-13T18:38:00.377Z,51.87
2018-05-13T18:40:29.535Z,48.03
2018-05-13T18:42:57.836Z,49.63
2018-05-13T18:45:26.828Z,53.10
2018-05-13T18:47:55.117Z,52.53
2018-05-13T18:50:23.459Z,53.23
2018-05-13T18:52:51.657Z,58.90
2018-05-13T18:55:19.933Z,59.20
2018-05-13T18:57:48.183Z,54.43
2018-05-13T19:00:16.444Z,55.03
2018-05-13T19:02:44.718Z,53.63
2018-05-13T19:05:12.985Z,53.27
2018-05-13T19:07:41.274Z,55.40
2018-05-13T19:10:09.518Z,55.83
2018-05-13T19:12:37.794Z,53.50
2018-05-13T19:15:06.047Z,52.27
2018-05-13T19:17:34.365Z,54.43
2018-05-13T19:20:02.646Z,47.30
2018-05-13T19:22:30.912Z,50.33
2018-05-13T19:24:59.182Z,58.80
2018-05-13T19:27:28.245Z,49.63
2018-05-13T19:29:56.507Z,53.50
2018-05-13T19:32:24.769Z,57.07
2018-05-13T19:34:53.036Z,53.20
2018-05-13T19:37:21.304Z,46.87
2018-05-13T19:39:50.358Z,47.77
2018-05-13T19:42:18.618Z,45.73
2018-05-13T19:44:46.922Z,47.83
2018-05-13T19:47:15.149Z,46.87
2018-05-13T19:49:43.422Z,46.23
2018-05-13T19:52:12.434Z,43.40
2018-05-13T19:54:40.710Z,43.03
2018-05-13T19:57:09.751Z,41.87
2018-05-13T19:59:37.991Z,45.33
2018-05-13T20:02:06.254Z,40.27
2018-05-13T20:04:35.270Z,42.83
2018-05-13T20:07:03.543Z,48.50
2018-05-13T20:09:32.564Z,50.20
2018-05-13T20:12:00.808Z,46.63
2018-05-13T20:14:30.949Z,43.87
2018-05-13T20:16:59.253Z,42.10
2018-05-13T20:19:29.452Z,42.60
2018-05-13T20:21:57.728Z,43.73
2018-05-13T20:24:26.737Z,43.13
2018-05-13T20:26:55.026Z,41.20
2018-05-13T20:29:23.322Z,45.73
2018-05-13T20:31:51.615Z,45.70
2018-05-13T20:34:19.863Z,44.10
2018-05-13T20:36:48.133Z,46.00
2018-05-13T20:39:16.422Z,43.47
2018-05-13T20:41:44.683Z,43.13
2018-05-13T20:44:13.767Z,46.70
2018-05-13T20:46:42.019Z,48.40
2018-05-13T20:49:10.402Z,44.03
2018-05-13T20:51:38.722Z,48.80
2018-05-13T20:54:07.745Z,45.03
2018-05-13T20:56:36.036Z,43.40
2018-05-13T20:59:04.329Z,43.67
2018-05-13T21:01:32.582Z,51.27
2018-05-13T21:04:01.604Z,44.67
2018-05-13T21:06:29.968Z,50.30
2018-05-13T21:08:58.251Z,50.10
2018-05-13T21:11:26.507Z,54.60
2018-05-13T21:13:55.632Z,45.70
2018-05-13T21:16:23.861Z,55.70
2018-05-13T21:18:52.128Z,55.60
2018-05-13T21:21:21.318Z,58.93
2018-05-13T21:23:49.554Z,54.33
2018-05-13T21:26:18.567Z,56.70
2018-05-13T21:28:46.859Z,53.07
2018-05-13T21:31:15.093Z,62.03
2018-05-13T21:33:43.352Z,59.87
2018-05-13T21:36:11.608Z,56.50
2018-05-13T21:38:39.877Z,54.80
2018-05-13T21:41:08.134Z,53.23
2018-05-13T21:43:37.177Z,54.80
2018-05-13T21:46:05.439Z,51.50
2018-05-13T21:48:33.682Z,51.67
2018-05-13T21:51:03.617Z,52.93
2018-05-13T21:53:31.897Z,56.17
2018-05-13T21:56:00.168Z,53.67
2018-05-13T21:58:29.192Z,57.80
2018-05-13T22:00:57.434Z,56.93
2018-05-13T22:03:25.705Z,54.50
2018-05-13T22:05:53.943Z,55.70
2018-05-13T22:08:22.189Z,54.47
2018-05-13T22:10:50.472Z,56.93
2018-05-13T22:13:18.944Z,58.63
2018-05-13T22:15:47.968Z,55.33
2018-05-13T22:18:18.248Z,56.57
2018-05-13T22:20:46.900Z,59.73
2018-05-13T22:23:15.137Z,57.53
2018-05-13T22:25:44.290Z,54.53
2018-05-13T22:28:12.561Z,53.80
2018-05-13T22:30:40.795Z,57.87
2018-05-13T22:33:09.842Z,55.23
2018-05-13T22:35:38.071Z,56.50
2018-05-13T22:38:07.067Z,56.13
2018-05-13T22:40:36.095Z,56.07
2018-05-13T22:43:04.359Z,57.00
2018-05-13T22:45:33.365Z,53.70
2018-05-13T22:48:01.643Z,57.10
2018-05-13T22:50:29.923Z,61.40
2018-05-13T22:52:58.948Z,66.13
2018-05-13T22:55:27.209Z,61.03
2018-05-13T22:57:55.651Z,70.83
2018-05-13T23:00:24.036Z,67.97
2018-05-13T23:02:52.261Z,70.30
2018-05-13T23:05:20.430Z,68.30
2018-05-13T23:07:49.465Z,69.07
2018-05-13T23:10:18.734Z,72.60
2018-05-13T23:12:47.086Z,68.73
2018-05-13T23:15:16.144Z,71.97
2018-05-13T23:17:44.380Z,65.50
2018-05-13T23:20:13.383Z,75.87
2018-05-13T23:22:42.422Z,72.30
2018-05-13T23:25:10.688Z,71.10
2018-05-13T23:27:38.944Z,74.33
2018-05-13T23:30:07.244Z,76.07
2018-05-13T23:32:35.541Z,77.70
2018-05-13T23:35:03.778Z,78.70
2018-05-13T23:37:33.007Z,74.67
2018-05-13T23:40:01.251Z,85.77
2018-05-13T23:42:30.258Z,71.60
2018-05-13T23:44:58.552Z,78.97
2018-05-13T23:47:26.832Z,80.13
2018-05-13T23:49:55.822Z,78.47
2018-05-13T23:52:24.870Z,78.30
2018-05-13T23:54:53.134Z,73.13
2018-05-13T23:57:21.364Z,73.57
2018-05-13T23:59:50.398Z,74.17
